Time;durP1;ratioP1;P1;durP2;ratioP2;P2;SDS_P1;SDS_P2;PMS_P1;PMS_P2;Temp;Humidity;BMP_temperature;BMP_pressure;BME280_temperature;BME280_humidity;BME280_pressure;Samples;Min_cycle;Max_cycle;Signal;HPM_P1;HPM_P2
2022/07/01 00:00:27;;;;;;;;;;;;;;;-149.78;100.00;50199.59;5101070;28;20351;-77
2022/07/01 00:02:52;;;;;;;;;;;;;;;-149.78;100.00;50238.72;5087064;28;19915;-76
2022/07/01 00:05:18;;;;;;;;;;;;;;;-149.78;100.00;50213.28;5072376;28;19995;-77
2022/07/01 00:07:43;;;;;;;;;;;;;;;-149.78;100.00;50189.81;5097739;28;19908;-76
2022/07/01 00:10:10;;;;;;;;;;;;;;;-149.78;100.00;50185.91;5094558;28;20378;-77
2022/07/01 00:12:35;;;;;;;;;;;;;;;-149.78;100.00;50244.59;5097106;28;19916;-76
2022/07/01 00:15:01;;;;;;;;;;;;;;;-149.78;100.00;50209.38;5093122;28;19926;-76
2022/07/01 00:17:27;;;;;;;;;;;;;;;-149.78;100.00;50238.72;5071244;28;20002;-77
2022/07/01 00:19:52;;;;;;;;;;;;;;;-149.78;100.00;50197.66;5075536;28;20510;-76
2022/07/01 00:22:18;;;;;;;;;;;;;;;-149.78;100.00;50258.28;5067863;28;19920;-76
2022/07/01 00:24:45;;;;;;;;;;;;;;;-149.78;100.00;50182.00;5098785;28;19911;-76
2022/07/01 00:27:12;;;;;;;;;;;;;;;-149.78;100.00;50217.19;5089781;28;19919;-76
2022/07/01 00:29:38;;;;;;;;;;;;;;;-149.78;100.00;50197.66;5102068;28;19927;-76
2022/07/01 00:32:03;;;;;;;;;;;;;;;-149.78;100.00;50230.88;5094178;28;19969;-76
2022/07/01 00:34:29;;;;;;;;;;;;;;;-149.78;100.00;50219.16;5069972;28;19913;-76
2022/07/01 00:36:54;;;;;;;;;;;;;;;-149.78;100.00;50236.75;5093527;28;20042;-76
2022/07/01 00:39:20;;;;;;;;;;;;;;;-149.78;100.00;50199.59;5077172;28;19924;-76
2022/07/01 00:41:45;;;;;;;;;;;;;;;-149.78;100.00;50211.34;5065628;28;19977;-76
2022/07/01 00:44:17;;;;;;;;;;;;;;;-149.78;100.00;50189.81;5083294;28;19974;-77
2022/07/01 00:46:44;;;;;;;;;;;;;;;-149.78;100.00;50232.84;5082467;28;20305;-76
2022/07/01 00:49:10;;;;;;;;;;;;;;;-149.78;100.00;50228.94;5091463;28;19947;-76
2022/07/01 00:51:35;;;;;;;;;;;;;;;-149.78;100.00;50232.84;5045683;28;21381;-76
2022/07/01 00:54:01;;;;;;;;;;;;;;;-149.78;100.00;50221.13;5060278;28;20357;-76
2022/07/01 00:56:27;;;;;;;;;;;;;;;-149.78;100.00;50209.38;5050831;28;21068;-76
2022/07/01 00:58:52;;;;;;;;;;;;;;;-149.78;100.00;50225.03;5039049;28;19928;-76
2022/07/01 01:01:19;;;;;;;;;;;;;;;-149.78;100.00;50221.13;5063556;28;20520;-76
2022/07/01 01:03:44;;;;;;;;;;;;;;;-149.78;100.00;50240.66;5041234;28;19971;-76
2022/07/01 01:06:10;;;;;;;;;;;;;;;-149.78;100.00;50193.72;5061946;28;19967;-76
2022/07/01 01:08:36;;;;;;;;;;;;;;;-149.78;100.00;50228.94;5050724;28;20450;-76
2022/07/01 01:11:03;;;;;;;;;;;;;;;-149.78;100.00;50240.66;5060092;28;19923;-76
2022/07/01 01:13:28;;;;;;;;;;;;;;;-149.78;100.00;50244.59;5053727;28;19920;-77
2022/07/01 01:15:54;;;;;;;;;;;;;;;-149.78;100.00;50209.38;5060934;28;19921;-76
2022/07/01 01:18:19;;;;;;;;;;;;;;;-149.78;100.00;50248.50;5053878;28;19968;-76
2022/07/01 01:20:45;;;;;;;;;;;;;;;-149.78;100.00;50225.03;5054716;28;20394;-76
2022/07/01 01:23:10;;;;;;;;;;;;;;;-149.78;100.00;50236.75;5056644;28;20348;-77
2022/07/01 01:25:36;;;;;;;;;;;;;;;-149.78;100.00;50240.66;5062230;28;19929;-76
2022/07/01 01:28:01;;;;;;;;;;;;;;;-149.78;100.00;50221.13;5062728;28;19943;-76
2022/07/01 01:30:27;;;;;;;;;;;;;;;-149.78;100.00;50203.50;5054343;28;19978;-76
2022/07/01 01:32:53;;;;;;;;;;;;;;;-149.78;100.00;50234.81;5056016;28;19939;-76
2022/07/01 01:35:19;;;;;;;;;;;;;;;-149.78;100.00;50240.66;5076309;28;19924;-76
2022/07/01 01:37:44;;;;;;;;;;;;;;;-149.78;100.00;50217.19;5062480;28;19913;-75
2022/07/01 01:40:13;;;;;;;;;;;;;;;-149.78;100.00;50228.94;5059289;28;19969;-75
2022/07/01 01:42:39;;;;;;;;;;;;;;;-149.78;100.00;50217.19;5038534;28;19927;-75
2022/07/01 01:45:04;;;;;;;;;;;;;;;-149.78;100.00;50225.03;5055152;28;19913;-75
2022/07/01 01:47:30;;;;;;;;;;;;;;;-149.78;100.00;50260.22;5054975;28;19924;-76
2022/07/01 01:49:55;;;;;;;;;;;;;;;-149.78;100.00;50215.25;5059917;28;19924;-76
2022/07/01 01:52:21;;;;;;;;;;;;;;;-149.78;100.00;50248.50;5063828;28;20022;-75
2022/07/01 01:54:46;;;;;;;;;;;;;;;-149.78;100.00;50260.22;5064418;28;19979;-75
2022/07/01 01:57:12;;;;;;;;;;;;;;;-149.78;100.00;50197.66;5070762;28;19927;-75
2022/07/01 01:59:37;;;;;;;;;;;;;;;-149.78;100.00;50248.50;5058466;28;20125;-75
2022/07/01 02:02:03;;;;;;;;;;;;;;;-149.78;100.00;50256.31;5045355;28;20430;-75
2022/07/01 02:04:28;;;;;;;;;;;;;;;-149.78;100.00;50240.66;5079987;28;19923;-75
2022/07/01 02:06:54;;;;;;;;;;;;;;;-149.78;100.00;50240.66;5068654;28;20280;-75
2022/07/01 02:09:19;;;;;;;;;;;;;;;-149.78;100.00;50268.03;5052609;28;19924;-75
2022/07/01 02:11:45;;;;;;;;;;;;;;;-149.78;100.00;50228.94;5037751;28;19995;-76
2022/07/01 02:14:11;;;;;;;;;;;;;;;-149.78;100.00;50242.63;5042075;28;19920;-75
2022/07/01 02:16:36;;;;;;;;;;;;;;;-149.78;100.00;50213.28;5043732;28;19920;-76
2022/07/01 02:19:02;;;;;;;;;;;;;;;-149.78;100.00;50252.41;5067276;28;20407;-76
2022/07/01 02:21:28;;;;;;;;;;;;;;;-149.78;100.00;50256.31;5064959;28;20059;-75
2022/07/01 02:23:54;;;;;;;;;;;;;;;-149.78;100.00;50232.84;5066408;28;19909;-75
2022/07/01 02:26:20;;;;;;;;;;;;;;;-149.78;100.00;50268.03;5070097;28;19928;-76
2022/07/01 02:28:45;;;;;;;;;;;;;;;-149.78;100.00;50232.84;5084579;28;21047;-75
2022/07/01 02:31:11;;;;;;;;;;;;;;;-149.78;100.00;50270.00;5077260;28;19966;-75
2022/07/01 02:33:36;;;;;;;;;;;;;;;-149.78;100.00;50264.13;5076130;28;19921;-75
2022/07/01 02:36:02;;;;;;;;;;;;;;;-149.78;100.00;50236.75;5090094;28;19931;-75
2022/07/01 02:38:28;;;;;;;;;;;;;;;-149.78;100.00;50248.50;5082331;28;19913;-75
2022/07/01 02:40:53;;;;;;;;;;;;;;;-149.78;100.00;50232.84;5069452;28;20021;-75
2022/07/01 02:43:19;;;;;;;;;;;;;;;-149.78;100.00;50217.19;5054492;28;19935;-75
2022/07/01 02:45:44;;;;;;;;;;;;;;;-149.78;100.00;50264.13;5072184;28;20019;-75
2022/07/01 02:48:09;;;;;;;;;;;;;;;-149.78;100.00;50225.03;5071330;28;20007;-75
2022/07/01 02:50:35;;;;;;;;;;;;;;;-149.78;100.00;50197.66;5082058;28;19977;-75
2022/07/01 02:53:00;;;;;;;;;;;;;;;-149.78;100.00;50248.50;5092146;28;19998;-75
2022/07/01 02:55:26;;;;;;;;;;;;;;;-149.78;100.00;50277.81;5100788;28;19974;-75
2022/07/01 02:57:52;;;;;;;;;;;;;;;-149.78;100.00;50238.72;5088722;28;19987;-75
2022/07/01 03:00:18;;;;;;;;;;;;;;;-149.78;100.00;50275.88;5103773;28;19965;-75
2022/07/01 03:02:44;;;;;;;;;;;;;;;-149.78;100.00;50244.59;5087074;28;20391;-76
2022/07/01 03:05:10;;;;;;;;;;;;;;;-149.78;100.00;50256.31;5082192;28;20006;-75
2022/07/01 03:07:36;;;;;;;;;;;;;;;-149.78;100.00;50293.47;5090203;28;20366;-75
2022/07/01 03:10:02;;;;;;;;;;;;;;;-149.78;100.00;50248.50;5082555;28;19939;-75
2022/07/01 03:12:28;;;;;;;;;;;;;;;-149.78;100.00;50264.13;5100366;28;20431;-75
2022/07/01 03:14:57;;;;;;;;;;;;;;;-149.78;100.00;50232.84;5093925;28;20116;-75
2022/07/01 03:17:24;;;;;;;;;;;;;;;-149.78;100.00;50264.13;5105542;28;19916;-75
2022/07/01 03:19:51;;;;;;;;;;;;;;;-149.78;100.00;50277.81;5091308;28;19916;-75
2022/07/01 03:22:18;;;;;;;;;;;;;;;-149.78;100.00;50234.81;5077419;28;20271;-75
2022/07/01 03:24:43;;;;;;;;;;;;;;;-149.78;100.00;50273.91;5100368;28;19916;-75
2022/07/01 03:27:09;;;;;;;;;;;;;;;-149.78;100.00;50268.03;5074013;28;19931;-75
2022/07/01 03:29:35;;;;;;;;;;;;;;;-149.78;100.00;50262.19;5098566;28;19924;-75
2022/07/01 03:32:00;;;;;;;;;;;;;;;-149.78;100.00;50256.31;5072951;28;20293;-75
2022/07/01 03:34:26;;;;;;;;;;;;;;;-149.78;100.00;50228.94;5096545;28;19943;-75
2022/07/01 03:36:51;;;;;;;;;;;;;;;-149.78;100.00;50244.59;5089404;28;19927;-75
2022/07/01 03:39:17;;;;;;;;;;;;;;;-149.78;100.00;50232.84;5088213;28;19919;-75
2022/07/01 03:41:42;;;;;;;;;;;;;;;-149.78;100.00;50254.34;5083711;28;19916;-75
2022/07/01 03:44:07;;;;;;;;;;;;;;;-149.78;100.00;50258.28;5090264;28;19932;-75
2022/07/01 03:46:35;;;;;;;;;;;;;;;-149.78;100.00;50314.97;5085568;28;19927;-74
2022/07/01 03:49:01;;;;;;;;;;;;;;;-149.78;100.00;50268.03;5087602;28;19928;-74
2022/07/01 03:51:26;;;;;;;;;;;;;;;-149.78;100.00;50264.13;5091104;28;19928;-75
2022/07/01 03:56:35;;;;;;;;;;;;;;;-149.78;100.00;50228.94;5079072;28;20371;-75
2022/07/01 03:59:01;;;;;;;;;;;;;;;-149.78;100.00;50236.75;5087083;28;19927;-75
2022/07/01 04:01:28;;;;;;;;;;;;;;;-149.78;100.00;50215.25;5090007;28;19924;-75
2022/07/01 04:03:54;;;;;;;;;;;;;;;-149.78;100.00;50238.72;5090955;28;20257;-75
2022/07/01 04:06:19;;;;;;;;;;;;;;;-149.78;100.00;50279.78;5077047;28;19931;-74
2022/07/01 04:08:46;;;;;;;;;;;;;;;-149.78;100.00;50281.75;5077658;28;19917;-74
2022/07/01 04:11:12;;;;;;;;;;;;;;;-149.78;100.00;50266.09;5087553;28;20341;-74
2022/07/01 04:13:38;;;;;;;;;;;;;;;-149.78;100.00;50250.44;5091527;28;19942;-74
2022/07/01 04:16:04;;;;;;;;;;;;;;;-149.78;100.00;50248.50;5091587;28;19945;-75
2022/07/01 04:18:30;;;;;;;;;;;;;;;-149.78;100.00;50213.28;5073012;28;19977;-75
2022/07/01 04:23:39;;;;;;;;;;;;;;;-149.78;100.00;50221.13;5091169;28;19965;-74
2022/07/01 04:26:05;;;;;;;;;;;;;;;-149.78;100.00;50244.59;5083109;28;19924;-74
2022/07/01 04:28:30;;;;;;;;;;;;;;;-149.78;100.00;50225.03;5095427;28;19931;-75
2022/07/01 04:30:55;;;;;;;;;;;;;;;-149.78;100.00;50238.72;5083474;28;20386;-75
2022/07/01 04:33:21;;;;;;;;;;;;;;;-149.78;100.00;50228.94;5087424;28;19908;-75
2022/07/01 04:35:47;;;;;;;;;;;;;;;-149.78;100.00;50260.22;5071325;28;19920;-74
2022/07/01 04:38:12;;;;;;;;;;;;;;;-149.78;100.00;50252.41;5069032;28;19921;-75
2022/07/01 04:40:37;;;;;;;;;;;;;;;-149.78;100.00;50260.22;5091692;28;19939;-75
2022/07/01 04:43:03;;;;;;;;;;;;;;;-149.78;100.00;50248.50;5084666;28;20019;-75
2022/07/01 04:45:28;;;;;;;;;;;;;;;-149.78;100.00;50283.69;5084487;28;19923;-75
2022/07/01 04:47:53;;;;;;;;;;;;;;;-149.78;100.00;50244.59;5061204;28;19924;-75
2022/07/01 04:50:19;;;;;;;;;;;;;;;-149.78;100.00;50252.41;5078650;28;19940;-75
2022/07/01 04:52:45;;;;;;;;;;;;;;;-149.78;100.00;50230.88;5084974;28;20360;-75
2022/07/01 04:55:10;;;;;;;;;;;;;;;-149.78;100.00;50264.13;5069904;28;19931;-74
2022/07/01 04:57:36;;;;;;;;;;;;;;;-149.78;100.00;50246.53;5078636;28;19928;-75
2022/07/01 05:00:02;;;;;;;;;;;;;;;-149.78;100.00;50205.47;5074863;28;19916;-75
2022/07/01 05:02:28;;;;;;;;;;;;;;;-149.78;100.00;50264.13;5082961;28;20032;-74
2022/07/01 05:04:54;;;;;;;;;;;;;;;-149.78;100.00;50232.84;5085409;28;19959;-74
2022/07/01 05:07:28;;;;;;;;;;;;;;;-149.78;100.00;50226.97;5064887;28;19912;-74
2022/07/01 05:09:55;;;;;;;;;;;;;;;-149.78;100.00;50228.94;5096442;28;20000;-74
2022/07/01 05:12:21;;;;;;;;;;;;;;;-149.78;100.00;50271.97;5074290;28;19908;-75
2022/07/01 05:14:48;;;;;;;;;;;;;;;-149.78;100.00;50244.59;5087698;28;19915;-74
2022/07/01 05:17:13;;;;;;;;;;;;;;;-149.78;100.00;50209.38;5083323;28;19950;-74
2022/07/01 05:22:23;;;;;;;;;;;;;;;-149.78;100.00;50248.50;5076447;28;19925;-75
2022/07/01 05:24:49;;;;;;;;;;;;;;;-149.78;100.00;50248.50;5080421;28;19936;-74
2022/07/01 05:27:15;;;;;;;;;;;;;;;-149.78;100.00;50215.25;5064787;28;20390;-75
2022/07/01 05:29:40;;;;;;;;;;;;;;;-149.78;100.00;50232.84;5069225;28;20339;-74
2022/07/01 05:32:06;;;;;;;;;;;;;;;-149.78;100.00;50252.41;5077454;28;19927;-74
2022/07/01 05:34:32;;;;;;;;;;;;;;;-149.78;100.00;50232.84;5090361;28;19959;-75
2022/07/01 05:36:58;;;;;;;;;;;;;;;-149.78;100.00;50238.72;5057484;28;19919;-74
2022/07/01 05:39:24;;;;;;;;;;;;;;;-149.78;100.00;50205.47;5068800;28;19916;-74
2022/07/01 05:41:51;;;;;;;;;;;;;;;-149.78;100.00;50252.41;5075219;28;19970;-75
2022/07/01 05:44:17;;;;;;;;;;;;;;;-149.78;100.00;50248.50;5073813;28;19954;-74
2022/07/01 05:46:43;;;;;;;;;;;;;;;-149.78;100.00;50230.88;5063535;28;20255;-74
2022/07/01 05:49:08;;;;;;;;;;;;;;;-149.78;100.00;50213.28;5078108;28;19956;-75
2022/07/01 05:51:34;;;;;;;;;;;;;;;-149.78;100.00;50209.38;5082549;28;19977;-74
2022/07/01 05:54:00;;;;;;;;;;;;;;;-149.78;100.00;50248.50;5082881;28;19923;-75
2022/07/01 05:56:26;;;;;;;;;;;;;;;-149.78;100.00;50209.38;5082071;28;19912;-75
2022/07/01 05:58:51;;;;;;;;;;;;;;;-149.78;100.00;50225.03;5064860;28;19919;-74
2022/07/01 06:01:17;;;;;;;;;;;;;;;-149.78;100.00;50283.69;5080349;28;19916;-73
2022/07/01 06:03:42;;;;;;;;;;;;;;;-149.78;100.00;50248.50;5082731;28;19920;-74
2022/07/01 06:06:08;;;;;;;;;;;;;;;-149.78;100.00;50217.19;5079773;28;19924;-70
2022/07/01 06:08:34;;;;;;;;;;;;;;;-149.78;100.00;50244.59;5060919;28;19924;-74
2022/07/01 06:10:59;;;;;;;;;;;;;;;-149.78;100.00;50244.59;5063923;28;19931;-74
2022/07/01 06:13:24;;;;;;;;;;;;;;;-149.78;100.00;50258.28;5062812;28;19913;-73
2022/07/01 06:15:50;;;;;;;;;;;;;;;-149.78;100.00;50236.75;5058105;28;20003;-73
2022/07/01 06:18:15;;;;;;;;;;;;;;;-149.78;100.00;50225.03;5060029;28;19916;-74
2022/07/01 06:20:41;;;;;;;;;;;;;;;-149.78;100.00;50213.28;5089474;28;19924;-73
2022/07/01 06:23:07;;;;;;;;;;;;;;;-149.78;100.00;50182.00;5070792;28;20014;-76
2022/07/01 06:25:32;;;;;;;;;;;;;;;-149.78;100.00;50240.66;5064796;28;19927;-71
2022/07/01 06:27:57;;;;;;;;;;;;;;;-149.78;100.00;50228.94;5082271;28;20049;-71
2022/07/01 06:30:23;;;;;;;;;;;;;;;-149.78;100.00;50201.56;5082035;28;19924;-70
2022/07/01 06:32:48;;;;;;;;;;;;;;;-149.78;100.00;50226.97;5061160;28;19939;-70
2022/07/01 06:35:14;;;;;;;;;;;;;;;-149.78;100.00;50246.53;5057151;28;19927;-68
2022/07/01 06:37:40;;;;;;;;;;;;;;;-149.78;100.00;50221.13;5083086;28;20053;-70
2022/07/01 06:40:06;;;;;;;;;;;;;;;-149.78;100.00;50226.97;5087044;28;19916;-70
2022/07/01 06:42:32;;;;;;;;;;;;;;;-149.78;100.00;50209.38;5087913;28;20051;-70
2022/07/01 06:44:57;;;;;;;;;;;;;;;-149.78;100.00;50260.22;5066218;28;20304;-70
2022/07/01 06:47:23;;;;;;;;;;;;;;;-149.78;100.00;50230.88;5058061;28;19927;-70
2022/07/01 06:49:48;;;;;;;;;;;;;;;-149.78;100.00;50205.47;5056986;28;19928;-70
2022/07/01 06:52:14;;;;;;;;;;;;;;;-149.78;100.00;50232.84;5081938;28;20002;-69
2022/07/01 06:54:40;;;;;;;;;;;;;;;-149.78;100.00;50215.25;5078382;28;19916;-69
2022/07/01 06:57:05;;;;;;;;;;;;;;;-149.78;100.00;50205.47;5085414;28;19927;-68
2022/07/01 06:59:31;;;;;;;;;;;;;;;-149.78;100.00;50225.03;5083945;28;20328;-69
2022/07/01 07:01:56;;;;;;;;;;;;;;;-149.78;100.00;50225.03;5060827;28;20028;-69
2022/07/01 07:04:22;;;;;;;;;;;;;;;-149.78;100.00;50215.25;5092743;28;19946;-70
2022/07/01 07:06:48;;;;;;;;;;;;;;;-149.78;100.00;50217.19;5081955;28;19917;-70
2022/07/01 07:09:13;;;;;;;;;;;;;;;-149.78;100.00;50205.47;5086361;28;19998;-69
2022/07/01 07:11:38;;;;;;;;;;;;;;;-149.78;100.00;50228.94;5072766;28;19965;-70
2022/07/01 07:14:04;;;;;;;;;;;;;;;-149.78;100.00;50209.38;5081209;28;20004;-70
2022/07/01 07:16:30;;;;;;;;;;;;;;;-149.78;100.00;50205.47;5068403;28;20010;-71
2022/07/01 07:18:55;;;;;;;;;;;;;;;-149.78;100.00;50232.84;5082943;28;20378;-70
2022/07/01 07:21:21;;;;;;;;;;;;;;;-149.78;100.00;50236.75;5082021;28;19916;-70
2022/07/01 07:23:46;;;;;;;;;;;;;;;-149.78;100.00;50189.81;5059288;28;19923;-70
2022/07/01 07:26:12;;;;;;;;;;;;;;;-149.78;100.00;50201.56;5070215;28;20266;-69
2022/07/01 07:28:37;;;;;;;;;;;;;;;-149.78;100.00;50203.50;5084955;28;19931;-70
2022/07/01 07:31:03;;;;;;;;;;;;;;;-149.78;100.00;50201.56;5080681;28;19924;-70
2022/07/01 07:33:28;;;;;;;;;;;;;;;-149.78;100.00;50197.66;5066631;28;20328;-69
2022/07/01 07:35:54;;;;;;;;;;;;;;;-149.78;100.00;50146.81;5086116;28;19923;-70
2022/07/01 07:38:19;;;;;;;;;;;;;;;-149.78;100.00;50150.72;5095350;28;19920;-71
2022/07/01 07:40:45;;;;;;;;;;;;;;;-149.78;100.00;50133.09;5090226;28;19916;-71
2022/07/01 07:43:10;;;;;;;;;;;;;;;-149.78;100.00;50138.97;5090029;28;19920;-71
2022/07/01 07:45:35;;;;;;;;;;;;;;;-149.78;100.00;50099.88;5092012;28;19973;-72
2022/07/01 07:48:02;;;;;;;;;;;;;;;-149.78;100.00;50094.00;5087827;28;19965;-71
2022/07/01 07:50:27;;;;;;;;;;;;;;;-149.78;100.00;50105.72;5040464;28;19924;-71
2022/07/01 07:52:53;;;;;;;;;;;;;;;-149.78;100.00;50131.16;5073005;28;19935;-71
2022/07/01 07:55:18;;;;;;;;;;;;;;;-149.78;100.00;50131.16;5061899;28;20338;-70
2022/07/01 07:57:44;;;;;;;;;;;;;;;-149.78;100.00;50146.81;5057965;28;19909;-70
2022/07/01 08:00:12;;;;;;;;;;;;;;;-149.78;100.00;50125.28;5050671;28;20015;-70
2022/07/01 08:02:37;;;;;;;;;;;;;;;-149.78;100.00;50131.16;5062898;28;19931;-70
2022/07/01 08:05:03;;;;;;;;;;;;;;;-149.78;100.00;50119.41;5061798;28;20003;-70
2022/07/01 08:07:28;;;;;;;;;;;;;;;-149.78;100.00;50166.34;5067163;28;20007;-70
2022/07/01 08:09:55;;;;;;;;;;;;;;;-149.78;100.00;50135.06;5064097;28;20411;-70
2022/07/01 08:12:22;;;;;;;;;;;;;;;-149.78;100.00;50180.03;5066044;28;19921;-69
2022/07/01 08:14:48;;;;;;;;;;;;;;;-149.78;100.00;50150.72;5072735;28;19986;-70
2022/07/01 08:17:13;;;;;;;;;;;;;;;-149.78;100.00;50150.72;5066338;28;20713;-70
2022/07/01 08:19:39;;;;;;;;;;;;;;;-149.78;100.00;50182.00;5073675;28;19925;-69
2022/07/01 08:22:05;;;;;;;;;;;;;;;-149.78;100.00;50154.63;5064315;28;20388;-70
2022/07/01 08:24:30;;;;;;;;;;;;;;;-149.78;100.00;50150.72;5083489;28;19926;-70
2022/07/01 08:26:55;;;;;;;;;;;;;;;-149.78;100.00;50168.31;5074481;28;19921;-71
2022/07/01 08:29:21;;;;;;;;;;;;;;;-149.78;100.00;50217.19;5062392;28;19931;-70
2022/07/01 08:31:46;;;;;;;;;;;;;;;-149.78;100.00;50176.13;5072999;28;20356;-70
2022/07/01 08:34:12;;;;;;;;;;;;;;;-149.78;100.00;50148.75;5068124;28;19928;-72
2022/07/01 08:36:39;;;;;;;;;;;;;;;-149.78;100.00;50168.31;5073241;28;19924;-72
2022/07/01 08:39:04;;;;;;;;;;;;;;;-149.78;100.00;50131.16;5072722;28;19920;-70
2022/07/01 08:41:30;;;;;;;;;;;;;;;-149.78;100.00;50138.97;5069440;28;19924;-70
2022/07/01 08:43:56;;;;;;;;;;;;;;;-149.78;100.00;50142.88;5040274;28;20272;-73
2022/07/01 08:46:25;;;;;;;;;;;;;;;-149.78;100.00;50170.25;5054670;28;19922;-69
2022/07/01 08:48:51;;;;;;;;;;;;;;;-149.78;100.00;50123.34;5061938;28;19916;-71
2022/07/01 08:51:16;;;;;;;;;;;;;;;-149.78;100.00;50125.28;5059380;28;19993;-71
2022/07/01 08:53:41;;;;;;;;;;;;;;;-149.78;100.00;50138.97;5064837;28;19925;-71
2022/07/01 08:58:51;;;;;;;;;;;;;;;-149.78;100.00;50109.66;5048947;28;20387;-71
2022/07/01 09:01:22;;;;;;;;;;;;;;;-149.78;100.00;50107.69;5060540;28;20259;-71
2022/07/01 09:03:48;;;;;;;;;;;;;;;-149.78;100.00;50138.97;5061934;28;19924;-71
2022/07/01 09:06:15;;;;;;;;;;;;;;;-149.78;100.00;50080.31;5048672;28;20486;-71
2022/07/01 09:08:41;;;;;;;;;;;;;;;-149.78;100.00;50103.78;5044390;28;20256;-71
2022/07/01 09:11:11;;;;;;;;;;;;;;;-149.78;100.00;50072.50;5051377;28;19936;-71
2022/07/01 09:13:37;;;;;;;;;;;;;;;-149.78;100.00;50103.78;5064866;28;19921;-71
2022/07/01 09:16:10;;;;;;;;;;;;;;;-149.78;100.00;50092.03;5072652;28;19948;-71
2022/07/01 09:18:36;;;;;;;;;;;;;;;-149.78;100.00;50092.03;5064188;28;19987;-71
2022/07/01 09:21:07;;;;;;;;;;;;;;;-149.78;100.00;50144.84;5073729;28;19924;-71
2022/07/01 09:23:33;;;;;;;;;;;;;;;-149.78;100.00;50119.41;5072831;28;19952;-71
2022/07/01 09:25:58;;;;;;;;;;;;;;;-149.78;100.00;50123.34;5042369;28;19959;-71
2022/07/01 09:28:25;;;;;;;;;;;;;;;-149.78;100.00;50111.59;5064760;28;20372;-71
2022/07/01 09:30:52;;;;;;;;;;;;;;;-149.78;100.00;50107.69;5068334;28;19920;-71
2022/07/01 09:33:18;;;;;;;;;;;;;;;-149.78;100.00;50107.69;5068377;28;19916;-71
2022/07/01 09:35:44;;;;;;;;;;;;;;;-149.78;100.00;50092.03;5067646;28;19917;-71
2022/07/01 09:38:14;;;;;;;;;;;;;;;-149.78;100.00;50131.16;5064247;28;19923;-71
2022/07/01 09:40:46;;;;;;;;;;;;;;;-149.78;100.00;50099.88;5072659;28;19920;-71
2022/07/01 09:43:15;;;;;;;;;;;;;;;-149.78;100.00;50086.19;5073457;28;19961;-71
2022/07/01 09:45:50;;;;;;;;;;;;;;;-149.78;100.00;50092.03;5073058;28;19916;-71
2022/07/01 09:48:16;;;;;;;;;;;;;;;-149.78;100.00;50137.03;5072347;28;19917;-71
2022/07/01 09:50:41;;;;;;;;;;;;;;;-149.78;100.00;50090.09;5072857;28;19935;-71
2022/07/01 09:53:07;;;;;;;;;;;;;;;-149.78;100.00;50127.25;5062839;28;19924;-71
2022/07/01 09:55:33;;;;;;;;;;;;;;;-149.78;100.00;50095.94;5072617;28;19921;-71
2022/07/01 09:57:59;;;;;;;;;;;;;;;-149.78;100.00;50084.22;5071363;28;19960;-71
2022/07/01 10:00:26;;;;;;;;;;;;;;;-149.78;100.00;50056.84;5073459;28;19960;-71
2022/07/01 10:02:52;;;;;;;;;;;;;;;-149.78;100.00;50060.75;5064578;28;19917;-71
2022/07/01 10:05:20;;;;;;;;;;;;;;;-149.78;100.00;50076.41;5073163;28;19928;-71
2022/07/01 10:08:10;;;;;;;;;;;;;;;-149.78;100.00;50103.78;5064680;28;19924;-71
2022/07/01 10:10:48;;;;;;;;;;;;;;;-149.78;100.00;50099.88;5059944;28;20078;-71
2022/07/01 10:13:16;;;;;;;;;;;;;;;-149.78;88.08;50107.69;5056030;28;19916;-71
2022/07/01 10:15:42;;;;;;;;;;;;;;;-149.78;100.00;50123.34;5072883;28;19985;-71
2022/07/01 10:18:18;;;;;;;;;;;;;;;-149.78;100.00;50138.97;5084932;28;19967;-71
2022/07/01 10:20:46;;;;;;;;;;;;;;;-149.78;100.00;50095.94;5064162;28;19917;-71
2022/07/01 10:23:11;;;;;;;;;;;;;;;-149.78;100.00;50088.13;5059909;28;19916;-71
2022/07/01 10:25:37;;;;;;;;;;;;;;;-149.78;100.00;50109.66;5072846;28;19946;-71
2022/07/01 10:28:11;;;;;;;;;;;;;;;-149.78;100.00;50090.09;5061255;28;19920;-71
2022/07/01 10:30:47;;;;;;;;;;;;;;;-149.78;100.00;50095.94;5062952;28;20007;-71
2022/07/01 10:33:26;;;;;;;;;;;;;;;-149.78;86.91;50115.50;5065352;28;19917;-71
2022/07/01 10:35:51;;;;;;;;;;;;;;;-149.78;93.66;50103.78;5054850;28;20360;-71
2022/07/01 10:38:17;;;;;;;;;;;;;;;-149.78;100.00;50123.34;5071517;28;19928;-71
2022/07/01 10:40:48;;;;;;;;;;;;;;;-149.78;100.00;50103.78;5050760;28;19925;-71
2022/07/01 10:43:31;;;;;;;;;;;;;;;-149.78;100.00;50092.03;5057914;28;19967;-71
2022/07/01 10:45:56;;;;;;;;;;;;;;;-149.78;100.00;50117.47;5070153;28;19916;-71
2022/07/01 10:48:23;;;;;;;;;;;;;;;-149.78;100.00;50115.50;5070947;28;20289;-71
2022/07/01 10:50:50;;;;;;;;;;;;;;;-149.78;100.00;50115.50;5073968;28;19921;-71
2022/07/01 10:53:16;;;;;;;;;;;;;;;-149.78;100.00;50135.06;5073021;28;19928;-71
2022/07/01 10:55:45;;;;;;;;;;;;;;;-149.78;99.57;50138.97;5083755;28;19916;-71
2022/07/01 10:58:11;;;;;;;;;;;;;;;-149.78;97.88;50138.97;5076788;28;19916;-71
2022/07/01 11:00:40;;;;;;;;;;;;;;;-149.78;94.00;50133.09;5036679;28;20023;-70
2022/07/01 11:03:13;;;;;;;;;;;;;;;-149.78;100.00;50095.94;5080610;28;19921;-70
2022/07/01 11:05:39;;;;;;;;;;;;;;;-149.78;100.00;50127.25;5068103;28;19927;-70
2022/07/01 11:08:06;;;;;;;;;;;;;;;-149.78;100.00;50111.59;5074685;28;20010;-71
2022/07/01 11:10:32;;;;;;;;;;;;;;;-149.78;93.88;50113.56;5058285;28;19946;-71
2022/07/01 11:12:59;;;;;;;;;;;;;;;-149.78;83.56;50099.88;5060235;28;19921;-71
2022/07/01 11:15:25;;;;;;;;;;;;;;;-149.78;80.50;50088.13;5063774;28;19924;-71
2022/07/01 11:17:51;;;;;;;;;;;;;;;-149.78;81.32;50095.94;5061859;28;19917;-71
2022/07/01 11:20:16;;;;;;;;;;;;;;;-149.78;78.46;50092.03;5064253;28;19921;-71
2022/07/01 11:22:42;;;;;;;;;;;;;;;-149.78;92.27;50092.03;5037706;28;19931;-71
2022/07/01 11:25:09;;;;;;;;;;;;;;;-149.78;68.53;50080.31;5071928;28;19958;-71
2022/07/01 11:27:36;;;;;;;;;;;;;;;-149.78;76.93;50121.38;5075702;28;20360;-71
2022/07/01 11:30:08;;;;;;;;;;;;;;;-149.78;75.29;50082.25;5075306;28;19932;-71
2022/07/01 11:32:35;;;;;;;;;;;;;;;-149.78;76.10;50095.94;5075537;28;20336;-71
2022/07/01 11:35:01;;;;;;;;;;;;;;;-149.78;72.72;50076.41;5060207;28;19964;-71
2022/07/01 11:40:12;;;;;;;;;;;;;;;-149.78;73.61;50115.50;5067614;28;19990;-71
2022/07/01 11:42:38;;;;;;;;;;;;;;;-149.78;72.75;50095.94;5054661;28;20353;-71
2022/07/01 11:45:05;;;;;;;;;;;;;;;-149.78;73.86;50088.13;5071752;28;19978;-71
2022/07/01 11:47:31;;;;;;;;;;;;;;;-149.78;73.99;50099.88;5066525;28;19917;-71
2022/07/01 11:49:57;;;;;;;;;;;;;;;-149.78;83.47;50135.06;5075013;28;19974;-71
2022/07/01 11:52:24;;;;;;;;;;;;;;;-149.78;78.49;50127.25;5102408;28;20303;-71
2022/07/01 11:54:51;;;;;;;;;;;;;;;-149.78;77.40;50099.88;5094435;28;19969;-71
2022/07/01 11:57:18;;;;;;;;;;;;;;;-149.78;74.43;50107.69;5095093;28;19916;-71
2022/07/01 11:59:45;;;;;;;;;;;;;;;-149.78;79.67;50121.38;5094794;28;19955;-71
2022/07/01 12:02:11;;;;;;;;;;;;;;;-149.78;80.40;50142.88;5092411;28;19916;-71
2022/07/01 12:04:38;;;;;;;;;;;;;;;-149.78;90.12;50123.34;5072412;28;19971;-71
2022/07/01 12:07:04;;;;;;;;;;;;;;;-149.78;92.45;50101.81;5086800;28;19916;-71
2022/07/01 12:09:30;;;;;;;;;;;;;;;-149.78;100.00;50111.59;5094682;28;19932;-71
2022/07/01 12:11:56;;;;;;;;;;;;;;;-149.78;100.00;50123.34;5081623;28;20364;-71
2022/07/01 12:14:22;;;;;;;;;;;;;;;-149.78;100.00;50131.16;5095297;28;20265;-71
2022/07/01 12:16:50;;;;;;;;;;;;;;;-149.78;100.00;50146.81;5110383;28;19927;-71
2022/07/01 12:19:16;;;;;;;;;;;;;;;-149.78;100.00;50162.44;5076870;28;19945;-71
2022/07/01 12:21:57;;;;;;;;;;;;;;;-149.78;100.00;50127.25;5082036;28;19928;-71
2022/07/01 12:24:23;;;;;;;;;;;;;;;-149.78;100.00;50138.97;5060036;28;19986;-72
2022/07/01 12:26:58;;;;;;;;;;;;;;;-149.78;100.00;50088.13;5083373;28;19915;-72